Time;durP1;ratioP1;P1;durP2;ratioP2;P2;SDS_P1;SDS_P2;PMS_P1;PMS_P2;Temp;Humidity;BMP_temperature;BMP_pressure;BME280_temperature;BME280_humidity;BME280_pressure;Samples;Min_cycle;Max_cycle;Signal;HPM_P1;HPM_P2
2021/07/19 00:00:29;;;;;;;;;;;;;;;24.78;54.19;102021.00;2209913;39;115181;-56
2021/07/19 00:02:02;;;;;;;;;;;;;;;24.78;54.40;102015.34;2210424;39;114881;-56
2021/07/19 00:03:34;;;;;;;;;;;;;;;24.79;54.27;102014.22;2210234;39;114803;-56
2021/07/19 00:05:06;;;;;;;;;;;;;;;24.80;54.40;102013.06;2210558;39;114792;-56
2021/07/19 00:06:38;;;;;;;;;;;;;;;24.80;54.68;102013.88;2208729;39;115107;-55
2021/07/19 00:08:10;;;;;;;;;;;;;;;24.80;54.40;102013.06;2209982;39;114905;-56
2021/07/19 00:09:44;;;;;;;;;;;;;;;24.80;54.76;102013.88;2210756;39;114899;-56
2021/07/19 00:11:16;;;;;;;;;;;;;;;24.80;54.59;102013.06;2212235;39;114646;-57
2021/07/19 00:12:51;;;;;;;;;;;;;;;24.81;54.69;102014.72;2210782;39;115479;-55
2021/07/19 00:14:23;;;;;;;;;;;;;;;24.79;54.57;102019.88;2211210;39;115454;-55
2021/07/19 00:15:55;;;;;;;;;;;;;;;24.80;54.84;102011.06;2211199;39;115891;-56
2021/07/19 00:17:27;;;;;;;;;;;;;;;24.79;55.00;102014.22;2210260;39;115614;-56
2021/07/19 00:18:59;;;;;;;;;;;;;;;24.81;54.57;102011.91;2210539;39;115536;-56
2021/07/19 00:20:31;;;;;;;;;;;;;;;24.80;54.63;102011.06;2210560;39;115179;-56
2021/07/19 00:22:03;;;;;;;;;;;;;;;24.80;55.05;102016.72;2208102;39;116434;-56
2021/07/19 00:23:35;;;;;;;;;;;;;;;24.81;54.99;102017.56;2210693;39;115736;-56
2021/07/19 00:25:08;;;;;;;;;;;;;;;24.83;54.76;102018.09;2210858;39;115686;-55
2021/07/19 00:26:40;;;;;;;;;;;;;;;24.83;54.97;102018.09;2210492;39;115458;-56
2021/07/19 00:28:12;;;;;;;;;;;;;;;24.84;54.70;102018.94;2209171;39;115701;-56
2021/07/19 00:29:43;;;;;;;;;;;;;;;24.81;55.10;102020.38;2210290;39;114654;-57
2021/07/19 00:31:15;;;;;;;;;;;;;;;24.83;54.74;102017.25;2203640;39;115475;-55
2021/07/19 00:33:15;;;;;;;;;;;;;;;24.84;54.74;102021.75;2210798;39;115742;-55
2021/07/19 00:34:47;;;;;;;;;;;;;;;24.83;54.99;102020.91;2212807;39;115698;-56
2021/07/19 00:36:19;;;;;;;;;;;;;;;24.84;54.84;102019.78;2210605;39;113648;-56
2021/07/19 00:37:50;;;;;;;;;;;;;;;24.84;55.08;102018.94;2210235;39;113849;-56
2021/07/19 00:39:23;;;;;;;;;;;;;;;24.84;55.04;102014.13;2210591;39;113762;-56
2021/07/19 00:40:59;;;;;;;;;;;;;;;24.85;54.81;102012.13;2210972;39;113852;-56
2021/07/19 00:42:31;;;;;;;;;;;;;;;24.85;55.16;102014.97;2209699;39;113642;-56
2021/07/19 00:44:03;;;;;;;;;;;;;;;24.85;54.89;102007.28;2208977;39;114035;-56
2021/07/19 00:45:35;;;;;;;;;;;;;;;24.84;55.16;102008.47;2210699;39;114093;-56
2021/07/19 00:47:09;;;;;;;;;;;;;;;24.86;55.13;102006.19;2210666;39;113612;-56
2021/07/19 00:48:42;;;;;;;;;;;;;;;24.86;54.93;101999.66;2210936;39;113843;-55
2021/07/19 00:50:14;;;;;;;;;;;;;;;24.87;55.17;102004.19;2210745;39;113777;-56
2021/07/19 00:51:45;;;;;;;;;;;;;;;24.86;54.83;102011.84;2210827;39;113656;-56
2021/07/19 00:53:17;;;;;;;;;;;;;;;24.86;54.98;102006.19;2211142;39;113777;-56
2021/07/19 00:54:49;;;;;;;;;;;;;;;24.89;55.15;102004.75;2207254;39;114171;-56
2021/07/19 00:56:21;;;;;;;;;;;;;;;24.89;54.99;101999.94;2213114;39;113776;-56
2021/07/19 00:57:55;;;;;;;;;;;;;;;24.88;54.85;101995.41;2211492;39;114947;-56
2021/07/19 00:59:29;;;;;;;;;;;;;;;24.89;54.78;102002.75;2211643;39;113983;-56
2021/07/19 01:01:02;;;;;;;;;;;;;;;24.89;55.04;101994.28;2211366;39;114884;-56
2021/07/19 01:02:35;;;;;;;;;;;;;;;24.88;55.03;102003.91;2211644;39;114798;-57
2021/07/19 01:04:08;;;;;;;;;;;;;;;24.89;55.10;101999.94;2210896;39;114895;-56
2021/07/19 01:05:42;;;;;;;;;;;;;;;24.89;55.00;101997.09;2211425;39;114669;-56
2021/07/19 01:07:15;;;;;;;;;;;;;;;24.91;54.68;101997.59;2211191;39;114078;-56
2021/07/19 01:08:47;;;;;;;;;;;;;;;24.90;55.09;102001.56;2211579;39;114731;-56
2021/07/19 01:10:19;;;;;;;;;;;;;;;24.88;55.08;102001.06;2211834;39;114881;-56
2021/07/19 01:11:51;;;;;;;;;;;;;;;24.88;55.03;102006.72;2208547;39;114837;-56
2021/07/19 01:13:23;;;;;;;;;;;;;;;24.89;55.28;102002.75;2210803;39;114894;-56
2021/07/19 01:14:55;;;;;;;;;;;;;;;24.89;54.84;102002.75;2211832;39;115200;-57
2021/07/19 01:16:27;;;;;;;;;;;;;;;24.90;55.16;102004.41;2211869;39;114793;-56
2021/07/19 01:17:59;;;;;;;;;;;;;;;24.89;55.05;102005.59;2210628;39;114996;-57
2021/07/19 01:19:33;;;;;;;;;;;;;;;24.90;54.81;102001.56;2211334;39;115694;-56
2021/07/19 01:21:06;;;;;;;;;;;;;;;24.90;54.92;101993.09;2210140;39;115521;-56
2021/07/19 01:22:39;;;;;;;;;;;;;;;24.91;54.75;102000.44;2209444;39;115382;-56
2021/07/19 01:24:24;;;;;;;;;;;;;;;24.90;54.90;101997.91;2211570;39;115505;-56
2021/07/19 01:26:07;;;;;;;;;;;;;;;24.92;55.11;102009.75;2211979;39;114203;-56
2021/07/19 01:27:48;;;;;;;;;;;;;;;24.92;54.78;102002.13;2211391;39;114529;-56
2021/07/19 01:29:21;;;;;;;;;;;;;;;24.93;54.73;101988.81;2206432;39;115240;-56
2021/07/19 01:30:55;;;;;;;;;;;;;;;24.93;54.73;101995.31;2208733;39;115689;-56
2021/07/19 01:32:28;;;;;;;;;;;;;;;24.93;54.59;101992.50;2210457;39;115483;-56
2021/07/19 01:34:02;;;;;;;;;;;;;;;24.93;54.85;101984.00;2211607;39;115495;-57
2021/07/19 01:35:36;;;;;;;;;;;;;;;24.92;55.10;101987.13;2210021;39;116448;-56
2021/07/19 01:37:08;;;;;;;;;;;;;;;24.93;55.16;101986.00;2211607;39;115465;-56
2021/07/19 01:38:41;;;;;;;;;;;;;;;24.93;55.13;101983.16;2211643;39;115519;-56
2021/07/19 01:40:13;;;;;;;;;;;;;;;24.94;54.93;101991.31;2213046;39;115518;-56
2021/07/19 01:41:47;;;;;;;;;;;;;;;24.93;55.02;101984.00;2214910;39;114301;-56
2021/07/19 01:43:19;;;;;;;;;;;;;;;24.95;55.14;101989.31;2209676;39;113900;-56
2021/07/19 01:44:52;;;;;;;;;;;;;;;24.94;55.13;101988.50;2211538;39;113694;-56
2021/07/19 01:46:24;;;;;;;;;;;;;;;24.93;54.89;101994.47;2211391;39;114061;-56
2021/07/19 01:47:56;;;;;;;;;;;;;;;24.94;54.92;101991.31;2211422;39;114124;-56
2021/07/19 01:49:28;;;;;;;;;;;;;;;24.92;55.02;101987.97;2211348;39;113651;-56
2021/07/19 01:51:01;;;;;;;;;;;;;;;24.92;54.92;101987.13;2208539;39;113948;-56
2021/07/19 01:52:33;;;;;;;;;;;;;;;24.92;55.40;101987.13;2211221;39;113968;-56
2021/07/19 01:54:05;;;;;;;;;;;;;;;24.93;55.03;101986.00;2211727;39;113607;-56
2021/07/19 01:55:37;;;;;;;;;;;;;;;24.92;55.30;101987.97;2211569;39;113728;-56
2021/07/19 01:57:09;;;;;;;;;;;;;;;24.94;55.25;101985.66;2211027;39;113710;-56
2021/07/19 01:58:41;;;;;;;;;;;;;;;24.93;55.35;101984.00;2211659;39;113782;-56
2021/07/19 02:00:13;;;;;;;;;;;;;;;24.94;55.25;101982.84;2211925;39;113709;-56
2021/07/19 02:01:45;;;;;;;;;;;;;;;24.95;55.38;101987.34;2211235;39;113632;-56
2021/07/19 02:03:17;;;;;;;;;;;;;;;24.97;54.98;101981.38;2212568;39;113938;-56
2021/07/19 02:04:49;;;;;;;;;;;;;;;24.96;54.87;101983.38;2209732;39;114838;-56
2021/07/19 02:06:22;;;;;;;;;;;;;;;24.97;54.94;101984.22;2210968;39;115105;-56
2021/07/19 02:07:56;;;;;;;;;;;;;;;24.97;54.74;101976.56;2205326;39;114826;-56
2021/07/19 02:09:28;;;;;;;;;;;;;;;24.97;55.14;101982.22;2207857;39;114762;-56
2021/07/19 02:11:00;;;;;;;;;;;;;;;24.96;54.80;101983.38;2210891;39;114853;-56
2021/07/19 02:12:32;;;;;;;;;;;;;;;24.97;54.99;101979.41;2211313;39;115422;-56
2021/07/19 02:14:07;;;;;;;;;;;;;;;24.97;54.71;101984.22;2216425;39;114936;-56
2021/07/19 02:15:40;;;;;;;;;;;;;;;24.97;54.88;101979.41;2209010;39;115026;-56
2021/07/19 02:17:12;;;;;;;;;;;;;;;24.96;55.05;101980.53;2207722;39;114839;-56
2021/07/19 02:18:45;;;;;;;;;;;;;;;24.97;55.06;101982.22;2209895;39;115604;-56
2021/07/19 02:20:17;;;;;;;;;;;;;;;24.96;55.49;101977.72;2210139;39;114870;-56
2021/07/19 02:21:49;;;;;;;;;;;;;;;24.97;55.01;101973.75;2211083;39;114805;-55
2021/07/19 02:23:22;;;;;;;;;;;;;;;24.97;55.11;101972.91;2209310;39;114757;-56
2021/07/19 02:24:53;;;;;;;;;;;;;;;24.97;55.36;101978.56;2207189;39;113881;-56
2021/07/19 02:26:25;;;;;;;;;;;;;;;24.97;55.01;101985.06;2210663;39;115716;-56
2021/07/19 02:27:58;;;;;;;;;;;;;;;24.98;55.44;101983.06;2207924;39;115442;-56
2021/07/19 02:29:30;;;;;;;;;;;;;;;24.98;55.19;101978.25;2211395;39;115763;-56
2021/07/19 02:31:03;;;;;;;;;;;;;;;24.98;55.10;101981.09;2210464;39;115438;-56
2021/07/19 02:32:37;;;;;;;;;;;;;;;24.98;55.40;101972.59;2214475;39;115463;-57
2021/07/19 02:34:09;;;;;;;;;;;;;;;24.99;55.23;101981.88;2209371;39;115555;-56
2021/07/19 02:35:41;;;;;;;;;;;;;;;24.99;54.98;101976.22;2209542;39;115488;-56
2021/07/19 02:37:13;;;;;;;;;;;;;;;24.99;54.85;101976.22;2210993;39;115475;-56
2021/07/19 02:38:47;;;;;;;;;;;;;;;25.00;54.76;101975.94;2210893;39;115681;-56
2021/07/19 02:40:20;;;;;;;;;;;;;;;24.99;54.60;101979.91;2210665;39;115960;-56
2021/07/19 02:41:52;;;;;;;;;;;;;;;24.99;54.53;101974.25;2211538;39;115732;-56
2021/07/19 02:43:25;;;;;;;;;;;;;;;24.99;54.60;101974.25;2210956;39;115545;-56
2021/07/19 02:44:57;;;;;;;;;;;;;;;24.99;54.55;101977.06;2213637;39;115810;-56
2021/07/19 02:46:30;;;;;;;;;;;;;;;24.99;54.34;101976.22;2214818;39;115411;-55
2021/07/19 02:48:03;;;;;;;;;;;;;;;24.98;54.20;101978.25;2211187;39;113927;-59
2021/07/19 02:49:35;;;;;;;;;;;;;;;24.95;54.44;101975.19;2216777;39;113714;-56
2021/07/19 02:51:07;;;;;;;;;;;;;;;24.96;54.03;101972.06;2210432;39;113691;-56
2021/07/19 02:52:40;;;;;;;;;;;;;;;24.97;54.22;101976.56;2210893;39;114083;-56
2021/07/19 02:54:12;;;;;;;;;;;;;;;24.98;54.62;101974.59;2210815;39;113919;-56
2021/07/19 02:55:45;;;;;;;;;;;;;;;24.98;54.71;101972.59;2211297;39;113669;-56
2021/07/19 02:57:16;;;;;;;;;;;;;;;24.97;54.69;101970.91;2211377;39;113820;-56
2021/07/19 02:58:49;;;;;;;;;;;;;;;24.97;54.36;101973.75;2211055;39;113818;-56
2021/07/19 03:00:21;;;;;;;;;;;;;;;24.95;54.47;101976.03;2216937;39;113849;-56
2021/07/19 03:01:55;;;;;;;;;;;;;;;24.97;54.24;101978.56;2212855;39;113792;-56
2021/07/19 03:03:28;;;;;;;;;;;;;;;24.98;53.99;101980.25;2209841;39;113970;-56
2021/07/19 03:05:01;;;;;;;;;;;;;;;24.92;53.79;101976.66;2208601;39;113716;-56
2021/07/19 03:06:35;;;;;;;;;;;;;;;24.93;54.13;101981.19;2207914;39;114069;-56
2021/07/19 03:08:09;;;;;;;;;;;;;;;24.96;53.73;101976.88;2213734;39;113884;-56
2021/07/19 03:09:41;;;;;;;;;;;;;;;24.96;53.81;101977.72;2210223;39;114800;-56
2021/07/19 03:11:17;;;;;;;;;;;;;;;24.98;53.96;101974.59;2209800;39;114882;-56
2021/07/19 03:12:52;;;;;;;;;;;;;;;24.95;53.98;101973.19;2209439;39;113847;-56
2021/07/19 03:14:24;;;;;;;;;;;;;;;24.94;53.87;101973.53;2210887;39;115545;-56
2021/07/19 03:15:58;;;;;;;;;;;;;;;24.92;54.08;101965.34;2211463;39;114932;-56
2021/07/19 03:17:31;;;;;;;;;;;;;;;24.94;54.15;101962.22;2211055;39;114819;-56
2021/07/19 03:19:07;;;;;;;;;;;;;;;24.93;54.04;101963.38;2205062;39;114901;-56
2021/07/19 03:20:40;;;;;;;;;;;;;;;24.94;54.01;101960.22;2206079;39;115718;-56
2021/07/19 03:22:12;;;;;;;;;;;;;;;24.96;54.43;101966.41;2209976;39;115278;-56
2021/07/19 03:23:44;;;;;;;;;;;;;;;24.97;53.91;101970.06;2206233;39;114781;-56
2021/07/19 03:25:17;;;;;;;;;;;;;;;24.96;53.96;101962.72;2206663;39;115926;-56
2021/07/19 03:26:49;;;;;;;;;;;;;;;24.98;54.29;101964.13;2210430;39;113999;-56
2021/07/19 03:28:22;;;;;;;;;;;;;;;24.98;54.96;101968.94;2210981;39;115143;-56
2021/07/19 03:29:54;;;;;;;;;;;;;;;24.96;54.78;101974.03;2211555;39;114839;-56
2021/07/19 03:31:27;;;;;;;;;;;;;;;24.94;54.45;101963.03;2209797;39;115525;-56
2021/07/19 03:32:59;;;;;;;;;;;;;;;24.95;54.32;101964.72;2211462;39;115702;-56
2021/07/19 03:34:31;;;;;;;;;;;;;;;24.94;54.64;101965.06;2211405;39;116053;-56
2021/07/19 03:36:04;;;;;;;;;;;;;;;24.94;54.50;101960.22;2210581;39;115635;-56
2021/07/19 03:37:37;;;;;;;;;;;;;;;24.94;54.31;101970.72;2211031;39;116145;-56
2021/07/19 03:39:11;;;;;;;;;;;;;;;24.92;54.21;101961.69;2211206;39;115858;-56
2021/07/19 03:40:43;;;;;;;;;;;;;;;24.94;54.95;101960.22;2211248;39;115480;-56
2021/07/19 03:42:15;;;;;;;;;;;;;;;24.94;54.73;101954.56;2211197;39;116480;-56
2021/07/19 03:43:48;;;;;;;;;;;;;;;24.96;55.04;101962.72;2210713;39;115527;-56
2021/07/19 03:45:20;;;;;;;;;;;;;;;24.96;54.99;101954.25;2211216;39;115498;-56
2021/07/19 03:46:52;;;;;;;;;;;;;;;24.96;54.70;101954.25;2211095;39;115994;-56
2021/07/19 03:48:23;;;;;;;;;;;;;;;24.97;54.86;101955.94;2210867;39;115485;-56
2021/07/19 03:49:56;;;;;;;;;;;;;;;24.98;54.77;101947.16;2211205;39;116113;-56
2021/07/19 03:51:29;;;;;;;;;;;;;;;24.98;55.10;101951.97;2211336;39;115537;-56
2021/07/19 03:53:01;;;;;;;;;;;;;;;24.92;54.95;101939.91;2211263;39;116009;-56
2021/07/19 03:54:33;;;;;;;;;;;;;;;24.94;54.77;101942.44;2210418;39;113655;-58
2021/07/19 03:56:05;;;;;;;;;;;;;;;24.93;54.20;101947.25;2208415;39;113668;-56
2021/07/19 03:57:38;;;;;;;;;;;;;;;24.96;54.76;101946.59;2209317;39;113591;-57
2021/07/19 03:59:10;;;;;;;;;;;;;;;24.95;54.59;101953.41;2211129;39;113945;-56
2021/07/19 04:00:42;;;;;;;;;;;;;;;24.93;54.54;101946.41;2210677;39;113617;-56
2021/07/19 04:02:17;;;;;;;;;;;;;;;24.91;54.60;101949.53;2209919;39;113741;-56
2021/07/19 04:03:52;;;;;;;;;;;;;;;24.93;54.80;101941.59;2210738;39;113777;-56
2021/07/19 04:05:26;;;;;;;;;;;;;;;24.94;54.95;101940.41;2206812;39;113896;-56
2021/07/19 04:07:02;;;;;;;;;;;;;;;24.95;54.98;101947.75;2211209;39;113800;-56
2021/07/19 04:08:36;;;;;;;;;;;;;;;24.96;55.20;101945.78;2211331;39;113806;-56
2021/07/19 04:10:08;;;;;;;;;;;;;;;24.95;55.13;101941.25;2210677;39;114026;-56
2021/07/19 04:11:40;;;;;;;;;;;;;;;24.96;55.02;101946.59;2210482;39;113718;-56
2021/07/19 04:13:12;;;;;;;;;;;;;;;24.96;54.99;101946.59;2211797;39;113885;-56
2021/07/19 04:14:45;;;;;;;;;;;;;;;24.97;55.27;101944.63;2213696;39;113993;-56
2021/07/19 04:16:19;;;;;;;;;;;;;;;24.96;55.32;101943.78;2210414;39;115139;-56
2021/07/19 04:17:51;;;;;;;;;;;;;;;24.94;55.14;101951.72;2210350;39;114980;-56
2021/07/19 04:19:24;;;;;;;;;;;;;;;24.95;54.99;101935.59;2210557;39;115164;-56
2021/07/19 04:20:56;;;;;;;;;;;;;;;24.96;54.69;101937.28;2210496;39;115144;-56
2021/07/19 04:22:30;;;;;;;;;;;;;;;24.94;54.95;101939.59;2209046;39;114767;-56
2021/07/19 04:24:02;;;;;;;;;;;;;;;24.95;54.69;101935.59;2207581;39;114819;-56
2021/07/19 04:25:34;;;;;;;;;;;;;;;24.93;55.14;101940.75;2210514;39;114816;-55
2021/07/19 04:27:06;;;;;;;;;;;;;;;24.94;55.01;101939.59;2210419;39;114963;-56
2021/07/19 04:28:39;;;;;;;;;;;;;;;24.95;54.85;101949.75;2211028;39;114902;-60
2021/07/19 04:30:11;;;;;;;;;;;;;;;24.94;54.96;101943.25;2209069;39;113905;-56
2021/07/19 04:31:44;;;;;;;;;;;;;;;24.95;55.02;101941.25;2212091;39;115149;-56
2021/07/19 04:33:17;;;;;;;;;;;;;;;24.91;54.84;101949.53;2208321;39;114909;-56
2021/07/19 04:34:49;;;;;;;;;;;;;;;24.93;55.19;101947.25;2211261;39;114794;-56
2021/07/19 04:36:20;;;;;;;;;;;;;;;24.92;54.74;101953.22;2214586;39;113634;-56
2021/07/19 04:37:53;;;;;;;;;;;;;;;24.93;54.29;101955.72;2205268;39;115529;-55
2021/07/19 04:39:24;;;;;;;;;;;;;;;24.90;54.79;101947.84;2208892;39;116189;-56
2021/07/19 04:40:57;;;;;;;;;;;;;;;24.90;54.90;101949.84;2211851;39;115463;-56
2021/07/19 04:42:29;;;;;;;;;;;;;;;24.89;54.47;101949.03;2211175;39;115870;-56
2021/07/19 04:44:00;;;;;;;;;;;;;;;24.88;54.56;101944.53;2211215;39;115547;-56
2021/07/19 04:45:32;;;;;;;;;;;;;;;24.88;54.49;101941.69;2210668;39;115453;-56
2021/07/19 04:47:04;;;;;;;;;;;;;;;24.86;54.77;101941.16;2207800;39;115299;-56
2021/07/19 04:48:37;;;;;;;;;;;;;;;24.88;54.99;101944.53;2211206;39;115559;-56
2021/07/19 04:50:12;;;;;;;;;;;;;;;24.87;55.01;101940.00;2211357;39;115656;-56
2021/07/19 04:51:45;;;;;;;;;;;;;;;24.89;54.76;101932.06;2205355;39;115643;-56
2021/07/19 04:53:17;;;;;;;;;;;;;;;24.85;54.81;101947.13;2210887;39;115818;-56
2021/07/19 04:54:50;;;;;;;;;;;;;;;24.86;55.13;101943.13;2211213;39;114881;-56
2021/07/19 04:56:23;;;;;;;;;;;;;;;24.91;54.68;101946.72;2211917;39;115503;-56
2021/07/19 04:57:56;;;;;;;;;;;;;;;24.91;54.71;101940.22;2211603;39;115997;-56
2021/07/19 04:59:30;;;;;;;;;;;;;;;24.92;54.78;101937.09;2211463;39;114009;-56
2021/07/19 05:01:05;;;;;;;;;;;;;;;24.90;54.77;101944.19;2205500;39;113876;-57
2021/07/19 05:02:39;;;;;;;;;;;;;;;24.87;54.54;101942.84;2210848;39;113556;-55
2021/07/19 05:04:13;;;;;;;;;;;;;;;24.87;54.65;101942.00;2211259;39;113646;-55
2021/07/19 05:05:46;;;;;;;;;;;;;;;24.90;54.45;101947.00;2211579;39;113732;-56
2021/07/19 05:07:20;;;;;;;;;;;;;;;24.89;54.92;101945.38;2211790;39;113855;-55
2021/07/19 05:08:52;;;;;;;;;;;;;;;24.91;55.01;101938.22;2210331;39;113798;-56
2021/07/19 05:10:26;;;;;;;;;;;;;;;24.90;54.74;101950.69;2211381;39;113745;-56
2021/07/19 05:11:58;;;;;;;;;;;;;;;24.92;54.80;101948.41;2211575;39;114673;-56
2021/07/19 05:13:32;;;;;;;;;;;;;;;24.90;54.95;101947.84;2209521;39;114112;-56
2021/07/19 05:15:04;;;;;;;;;;;;;;;24.87;54.87;101950.47;2211335;39;113616;-55
2021/07/19 05:16:36;;;;;;;;;;;;;;;24.90;54.88;101939.38;2211521;39;114165;-56
2021/07/19 05:18:09;;;;;;;;;;;;;;;24.91;55.13;101946.72;2211725;39;113728;-56
2021/07/19 05:19:41;;;;;;;;;;;;;;;24.90;55.26;101949.84;2209091;39;113871;-56
2021/07/19 05:21:13;;;;;;;;;;;;;;;24.88;55.05;101955.00;2216810;39;113736;-56
2021/07/19 05:22:47;;;;;;;;;;;;;;;24.85;54.94;101942.28;2211171;39;114621;-56
2021/07/19 05:24:31;;;;;;;;;;;;;;;24.89;55.16;101946.19;2211422;39;115097;-57
2021/07/19 05:26:02;;;;;;;;;;;;;;;24.89;54.82;101942.53;2211093;39;114991;-56
2021/07/19 05:27:34;;;;;;;;;;;;;;;24.89;54.60;101939.72;2211247;39;114761;-56
2021/07/19 05:29:06;;;;;;;;;;;;;;;24.88;54.89;101933.22;2211532;39;114825;-56
2021/07/19 05:30:39;;;;;;;;;;;;;;;24.89;55.00;101942.53;2210617;39;114768;-56
2021/07/19 05:32:11;;;;;;;;;;;;;;;24.86;54.78;101941.16;2211366;39;115331;-56
2021/07/19 05:33:43;;;;;;;;;;;;;;;24.88;55.25;101946.50;2211127;39;115427;-56
2021/07/19 05:35:15;;;;;;;;;;;;;;;24.86;54.92;101941.16;2211351;39;115447;-55
2021/07/19 05:36:47;;;;;;;;;;;;;;;24.90;55.18;101942.19;2209789;39;115146;-56
2021/07/19 05:38:19;;;;;;;;;;;;;;;24.94;54.98;101940.41;2210879;39;114696;-55
2021/07/19 05:39:51;;;;;;;;;;;;;;;24.90;55.30;101947.00;2209901;39;115299;-56
2021/07/19 05:41:23;;;;;;;;;;;;;;;24.90;55.11;101941.34;2210391;39;115146;-55
2021/07/19 05:42:54;;;;;;;;;;;;;;;24.91;55.56;101945.88;2214063;39;114856;-55
2021/07/19 05:44:26;;;;;;;;;;;;;;;24.93;55.04;101946.41;2211867;39;114660;-56
2021/07/19 05:45:58;;;;;;;;;;;;;;;24.95;55.00;101938.44;2211147;39;115123;-55
2021/07/19 05:47:30;;;;;;;;;;;;;;;24.96;54.94;101940.97;2211015;39;115383;-55
2021/07/19 05:49:02;;;;;;;;;;;;;;;24.95;55.17;101942.09;2208665;39;115523;-55
2021/07/19 05:50:34;;;;;;;;;;;;;;;24.95;55.07;101942.09;2208747;39;115530;-55
2021/07/19 05:52:06;;;;;;;;;;;;;;;24.97;54.98;101938.97;2210982;39;115795;-55
2021/07/19 05:53:38;;;;;;;;;;;;;;;24.94;55.31;101945.25;2212096;39;115462;-55
2021/07/19 05:55:10;;;;;;;;;;;;;;;24.97;55.08;101945.47;2211226;39;115632;-55
2021/07/19 05:56:41;;;;;;;;;;;;;;;24.96;55.38;101938.13;2211361;39;115412;-55
2021/07/19 05:58:13;;;;;;;;;;;;;;;24.96;55.44;101937.28;2211564;39;114343;-56
2021/07/19 05:59:45;;;;;;;;;;;;;;;24.97;55.50;101939.81;2206930;39;115566;-55
2021/07/19 06:01:17;;;;;;;;;;;;;;;24.99;55.32;101945.97;2208458;39;115446;-55
2021/07/19 06:02:48;;;;;;;;;;;;;;;24.99;55.17;101936.66;2211220;39;115506;-55
2021/07/19 06:04:20;;;;;;;;;;;;;;;24.97;55.64;101939.81;2211613;39;116106;-55
2021/07/19 06:05:52;;;;;;;;;;;;;;;24.99;55.21;101937.47;2211381;39;113691;-56
2021/07/19 06:07:24;;;;;;;;;;;;;;;25.00;55.59;101943.97;2211299;39;113721;-55
2021/07/19 06:08:56;;;;;;;;;;;;;;;25.00;55.21;101935.50;2211822;39;113586;-56
2021/07/19 06:10:28;;;;;;;;;;;;;;;24.99;55.39;101942.31;2211555;39;113712;-56
2021/07/19 06:11:59;;;;;;;;;;;;;;;24.98;55.68;101947.16;2211002;39;113902;-55
2021/07/19 06:13:31;;;;;;;;;;;;;;;25.01;55.42;101938.03;2214487;39;113943;-56
2021/07/19 06:15:04;;;;;;;;;;;;;;;25.00;55.50;101936.34;2214201;39;113738;-55
2021/07/19 06:16:35;;;;;;;;;;;;;;;24.99;55.60;101936.66;2217281;39;113960;-56
2021/07/19 06:18:07;;;;;;;;;;;;;;;25.03;55.47;101934.88;2212697;39;113798;-55
2021/07/19 06:19:40;;;;;;;;;;;;;;;25.03;55.26;101932.06;2210594;39;113652;-55
2021/07/19 06:21:12;;;;;;;;;;;;;;;25.05;55.64;101933.41;2210587;39;113776;-55
2021/07/19 06:22:45;;;;;;;;;;;;;;;25.04;55.25;101928.06;2216897;39;113644;-55
2021/07/19 06:24:16;;;;;;;;;;;;;;;25.05;55.63;101939.06;2212269;39;114042;-55
2021/07/19 06:25:50;;;;;;;;;;;;;;;25.02;55.67;101931.22;2214050;39;113690;-55
2021/07/19 06:27:22;;;;;;;;;;;;;;;25.02;55.43;101931.22;2210717;39;114815;-55
2021/07/19 06:28:54;;;;;;;;;;;;;;;25.03;55.72;101932.88;2211634;39;114987;-55
2021/07/19 06:30:27;;;;;;;;;;;;;;;25.04;55.65;101934.56;2211286;39;115165;-55
2021/07/19 06:32:00;;;;;;;;;;;;;;;25.03;55.65;101927.22;2210222;39;115710;-55
2021/07/19 06:33:32;;;;;;;;;;;;;;;25.02;55.49;101934.06;2211501;39;114883;-56
2021/07/19 06:35:05;;;;;;;;;;;;;;;25.08;55.57;101927.13;2206833;39;115681;-56
2021/07/19 06:36:37;;;;;;;;;;;;;;;25.06;55.60;101934.25;2205892;39;114862;-55
2021/07/19 06:38:09;;;;;;;;;;;;;;;25.07;55.91;101933.94;2210777;39;114652;-56
2021/07/19 06:39:41;;;;;;;;;;;;;;;25.06;55.54;101926.59;2211647;39;114783;-56
2021/07/19 06:41:12;;;;;;;;;;;;;;;25.07;55.54;101933.09;2211714;39;114724;-56
2021/07/19 06:42:44;;;;;;;;;;;;;;;25.04;55.93;101936.53;2210854;39;114835;-55
2021/07/19 06:44:16;;;;;;;;;;;;;;;25.06;55.85;101932.25;2209147;39;114830;-56
2021/07/19 06:45:48;;;;;;;;;;;;;;;25.06;55.73;101934.25;2211026;39;115330;-55
2021/07/19 06:47:20;;;;;;;;;;;;;;;25.07;55.91;101928.28;2214095;39;115089;-55
2021/07/19 06:48:52;;;;;;;;;;;;;;;25.10;55.85;101943.78;2209629;39;115669;-60
2021/07/19 06:50:24;;;;;;;;;;;;;;;25.06;55.79;101937.06;2210886;39;115819;-55
2021/07/19 06:51:56;;;;;;;;;;;;;;;25.01;55.70;101932.38;2204436;39;115397;-55
2021/07/19 06:53:28;;;;;;;;;;;;;;;25.01;55.85;101935.19;2209246;39;115476;-55
2021/07/19 06:55:01;;;;;;;;;;;;;;;25.01;56.05;101940.84;2210454;39;115449;-55
2021/07/19 06:56:33;;;;;;;;;;;;;;;25.01;56.19;101946.50;2210615;39;115423;-55
2021/07/19 06:58:06;;;;;;;;;;;;;;;24.99;56.00;101939.47;2210533;39;114497;-55
2021/07/19 06:59:37;;;;;;;;;;;;;;;25.01;56.46;101937.19;2210867;39;116116;-55
2021/07/19 07:01:09;;;;;;;;;;;;;;;25.00;56.11;101941.16;2211222;39;115610;-55
2021/07/19 07:02:41;;;;;;;;;;;;;;;24.99;56.35;101928.16;2210847;39;115663;-55
2021/07/19 07:04:14;;;;;;;;;;;;;;;24.98;56.33;101937.81;2209685;39;115853;-55
2021/07/19 07:05:46;;;;;;;;;;;;;;;24.94;56.47;101937.59;2210339;39;115577;-55
2021/07/19 07:07:17;;;;;;;;;;;;;;;24.95;56.34;101939.28;2208898;39;116116;-55
2021/07/19 07:08:49;;;;;;;;;;;;;;;24.96;56.03;101940.13;2208556;39;115562;-59
2021/07/19 07:10:22;;;;;;;;;;;;;;;24.97;56.31;101938.97;2213432;39;115611;-55
2021/07/19 07:11:54;;;;;;;;;;;;;;;24.96;56.12;101938.13;2211278;39;113769;-55
2021/07/19 07:13:29;;;;;;;;;;;;;;;24.98;55.96;101935.84;2212405;39;113963;-55
2021/07/19 07:15:01;;;;;;;;;;;;;;;24.98;56.21;101935.84;2212112;39;113676;-55
2021/07/19 07:16:34;;;;;;;;;;;;;;;24.96;56.34;101925.97;2211701;39;114092;-55
2021/07/19 07:18:07;;;;;;;;;;;;;;;24.97;56.13;101936.13;2203432;39;113974;-55
2021/07/19 07:19:38;;;;;;;;;;;;;;;24.96;56.23;101928.81;2207915;39;113639;-55
2021/07/19 07:21:13;;;;;;;;;;;;;;;24.94;56.32;101936.78;2210129;39;113635;-55
2021/07/19 07:22:46;;;;;;;;;;;;;;;24.96;56.22;101938.13;2210988;39;113946;-55
2021/07/19 07:24:19;;;;;;;;;;;;;;;24.95;56.79;101936.44;2207906;39;114168;-55
2021/07/19 07:25:51;;;;;;;;;;;;;;;24.92;57.25;101936.25;2211194;39;113678;-55
2021/07/19 07:27:24;;;;;;;;;;;;;;;24.91;57.64;101937.38;2211755;39;113783;-56
2021/07/19 07:28:56;;;;;;;;;;;;;;;24.87;57.60;101930.69;2210965;39;113669;-56
2021/07/19 07:30:28;;;;;;;;;;;;;;;24.86;57.42;101941.16;2210010;39;113859;-55
2021/07/19 07:32:00;;;;;;;;;;;;;;;24.88;57.40;101938.03;2210712;39;114058;-55
2021/07/19 07:33:33;;;;;;;;;;;;;;;24.88;57.20;101944.53;2210953;39;114157;-55
2021/07/19 07:35:06;;;;;;;;;;;;;;;24.86;57.44;101937.47;2211494;39;115451;-55
2021/07/19 07:36:39;;;;;;;;;;;;;;;24.87;57.31;101939.16;2210615;39;114858;-55
2021/07/19 07:38:16;;;;;;;;;;;;;;;24.89;57.63;101942.53;2208027;39;114962;-55
2021/07/19 07:39:48;;;;;;;;;;;;;;;24.89;57.49;101931.22;2210368;39;113997;-55
2021/07/19 07:41:20;;;;;;;;;;;;;;;24.87;57.88;101931.53;2211418;39;114835;-56
2021/07/19 07:42:52;;;;;;;;;;;;;;;24.86;58.12;101934.63;2210935;39;114324;-55
2021/07/19 07:44:25;;;;;;;;;;;;;;;24.86;57.69;101928.97;2211184;39;115223;-55
2021/07/19 07:45:57;;;;;;;;;;;;;;;24.85;57.88;101930.97;2211324;39;114926;-55
2021/07/19 07:47:29;;;;;;;;;;;;;;;24.86;57.87;101926.16;2210600;39;114923;-56
2021/07/19 07:49:01;;;;;;;;;;;;;;;24.86;57.73;101927.03;2208782;39;114302;-55
2021/07/19 07:50:33;;;;;;;;;;;;;;;24.87;57.87;101928.69;2207231;39;114804;-56